Time;durP1;ratioP1;P1;durP2;ratioP2;P2;SDS_P1;SDS_P2;PMS_P1;PMS_P2;Temp;Humidity;BMP_temperature;BMP_pressure;BME280_temperature;BME280_humidity;BME280_pressure;Samples;Min_cycle;Max_cycle;Signal;HPM_P1;HPM_P2
2022/06/28 00:02:05;;;;;;;14.97;13.00;;;12.30;99.90;;;;;;5080158;28;20439;-62
2022/06/28 00:04:32;;;;;;;12.90;11.60;;;12.30;99.90;;;;;;5080523;28;20755;-62
2022/06/28 00:07:00;;;;;;;12.80;11.50;;;12.10;99.90;;;;;;5080788;28;20938;-62
2022/06/28 00:09:28;;;;;;;12.57;11.33;;;12.10;99.90;;;;;;5080484;28;20468;-62
2022/06/28 00:11:55;;;;;;;11.90;10.80;;;12.20;99.90;;;;;;5080559;28;20937;-62
2022/06/28 00:17:13;;;;;;;13.17;11.87;;;12.10;99.90;;;;;;5080434;28;20766;-62
2022/06/28 00:19:40;;;;;;;11.97;10.80;;;12.10;99.90;;;;;;5079551;28;20579;-63
2022/06/28 00:22:07;;;;;;;12.47;11.27;;;12.00;99.90;;;;;;5079825;28;20565;-62
2022/06/28 00:24:35;;;;;;;11.17;10.20;;;12.00;99.90;;;;;;5080096;28;20457;-62
2022/06/28 00:27:03;;;;;;;13.20;9.97;;;12.00;99.90;;;;;;5080074;28;20457;-62
2022/06/28 00:29:32;;;;;;;13.67;11.63;;;12.00;99.90;;;;;;5080253;28;20462;-62
2022/06/28 00:31:59;;;;;;;10.20;9.30;;;11.90;99.90;;;;;;5080163;28;20812;-62
2022/06/28 00:34:27;;;;;;;11.70;10.57;;;11.90;99.90;;;;;;5079494;28;20567;-62
2022/06/28 00:36:54;;;;;;;62.33;14.30;;;11.90;99.90;;;;;;5079856;28;20461;-62
2022/06/28 00:39:21;;;;;;;11.80;10.57;;;12.00;99.90;;;;;;5079928;28;20465;-62
2022/06/28 00:41:50;;;;;;;11.60;9.83;;;12.00;99.90;;;;;;5079972;28;20852;-62
2022/06/28 00:44:17;;;;;;;19.80;11.23;;;12.00;99.90;;;;;;5079709;28;20432;-62
2022/06/28 00:46:46;;;;;;;10.80;9.90;;;12.00;99.90;;;;;;5079705;28;20460;-62
2022/06/28 00:49:14;;;;;;;10.93;10.03;;;11.90;99.90;;;;;;5079766;28;20483;-62
2022/06/28 00:51:44;;;;;;;45.07;11.37;;;11.90;99.90;;;;;;5079691;28;20440;-62
2022/06/28 00:54:13;;;;;;;17.87;11.40;;;11.80;99.90;;;;;;5079038;28;20583;-62
2022/06/28 00:56:40;;;;;;;9.93;9.03;;;11.80;99.90;;;;;;5078656;28;20530;-62
2022/06/28 00:59:07;;;;;;;20.30;11.23;;;11.90;99.90;;;;;;5079653;28;20773;-62
2022/06/28 01:01:35;;;;;;;16.53;10.00;;;11.90;99.90;;;;;;5078729;28;20797;-62
2022/06/28 01:04:04;;;;;;;24.50;10.30;;;11.90;99.90;;;;;;5079025;28;20484;-62
2022/06/28 01:06:32;;;;;;;83.93;13.53;;;11.80;99.90;;;;;;5079643;28;20461;-62
2022/06/28 01:09:06;;;;;;;11.30;10.40;;;11.80;99.90;;;;;;5079259;28;20442;-62
2022/06/28 01:11:33;;;;;;;108.63;13.60;;;11.80;99.90;;;;;;5079760;28;20431;-62
2022/06/28 01:14:06;;;;;;;88.63;12.03;;;11.80;99.90;;;;;;5079040;28;20596;-62
2022/06/28 01:16:34;;;;;;;13.40;11.50;;;11.70;99.90;;;;;;5078735;28;20564;-62
2022/06/28 01:19:05;;;;;;;51.47;11.77;;;11.70;99.90;;;;;;5078670;28;20489;-62
2022/06/28 01:21:35;;;;;;;10.27;9.30;;;11.70;99.90;;;;;;5079471;28;20461;-62
2022/06/28 01:24:06;;;;;;;32.57;9.80;;;11.60;99.90;;;;;;5078893;28;20458;-62
2022/06/28 01:26:34;;;;;;;64.30;12.97;;;11.60;99.90;;;;;;5078775;28;20504;-62
2022/06/28 01:29:02;;;;;;;105.63;13.43;;;11.60;99.90;;;;;;5078818;28;20564;-61
2022/06/28 01:31:32;;;;;;;21.97;10.90;;;11.60;99.90;;;;;;5079289;28;20567;-61
2022/06/28 01:34:02;;;;;;;25.43;12.97;;;11.60;99.90;;;;;;5078082;28;20551;-61
2022/06/28 01:36:33;;;;;;;39.23;11.60;;;11.50;99.90;;;;;;5078609;28;20461;-61
2022/06/28 01:39:00;;;;;;;342.77;25.40;;;11.50;99.90;;;;;;5078773;28;20496;-61
2022/06/28 01:41:36;;;;;;;11.87;10.50;;;11.50;99.90;;;;;;5079039;28;20563;-61
2022/06/28 01:44:12;;;;;;;72.83;13.47;;;11.60;99.90;;;;;;5078492;28;20500;-62
2022/06/28 01:46:47;;;;;;;15.50;10.73;;;11.50;99.90;;;;;;5078141;28;20487;-61
2022/06/28 01:49:21;;;;;;;16.47;11.70;;;11.60;99.90;;;;;;5078683;28;20739;-61
2022/06/28 01:51:52;;;;;;;107.10;15.40;;;11.60;99.90;;;;;;5078938;28;20460;-62
2022/06/28 01:54:19;;;;;;;12.20;10.10;;;11.50;99.90;;;;;;5078042;28;20470;-61
2022/06/28 01:56:48;;;;;;;12.87;9.83;;;11.50;99.90;;;;;;5078480;28;20500;-61
2022/06/28 01:59:15;;;;;;;19.17;10.43;;;11.50;99.90;;;;;;5078381;28;20461;-61
2022/06/28 02:01:42;;;;;;;95.50;13.23;;;11.50;99.90;;;;;;5078305;28;20564;-62
2022/06/28 02:04:20;;;;;;;13.97;11.23;;;11.50;99.90;;;;;;5078136;28;20531;-61
2022/06/28 02:06:47;;;;;;;13.17;11.77;;;11.50;99.90;;;;;;5078305;28;20909;-62
2022/06/28 02:09:15;;;;;;;12.90;10.10;;;11.50;99.90;;;;;;5077823;28;20496;-62
2022/06/28 02:11:42;;;;;;;29.90;10.47;;;11.50;99.90;;;;;;5078224;28;20767;-63
2022/06/28 02:14:12;;;;;;;12.93;10.63;;;11.50;99.90;;;;;;5077578;28;20547;-62
2022/06/28 02:16:40;;;;;;;185.57;17.27;;;11.40;99.90;;;;;;5077862;28;20473;-62
2022/06/28 02:19:08;;;;;;;25.93;10.50;;;11.40;99.90;;;;;;5077528;28;20580;-62
2022/06/28 02:21:39;;;;;;;126.10;14.33;;;11.30;99.90;;;;;;5077941;28;20465;-63
2022/06/28 02:24:09;;;;;;;9.43;8.57;;;11.20;99.90;;;;;;5077896;28;20552;-62
2022/06/28 02:26:36;;;;;;;13.13;7.90;;;11.10;99.90;;;;;;5077993;28;20493;-62
2022/06/28 02:29:05;;;;;;;8.10;7.40;;;11.00;99.90;;;;;;5077811;28;20465;-63
2022/06/28 02:31:36;;;;;;;9.33;8.53;;;11.00;99.90;;;;;;5077846;28;20468;-62
2022/06/28 02:34:05;;;;;;;9.13;8.37;;;10.90;99.90;;;;;;5077248;28;20468;-62
2022/06/28 02:42:04;;;;;;;9.33;8.53;;;10.80;99.90;;;;;;5076950;28;20437;-62
2022/06/28 02:44:34;;;;;;;13.60;10.60;;;10.80;99.90;;;;;;5077493;28;20751;-62
2022/06/28 02:47:06;;;;;;;11.90;10.10;;;10.70;99.90;;;;;;5077611;28;20484;-61
2022/06/28 02:49:35;;;;;;;10.23;9.23;;;10.70;99.90;;;;;;5077965;28;20466;-61
2022/06/28 02:52:02;;;;;;;11.53;10.53;;;10.70;99.90;;;;;;5077249;28;20465;-61
2022/06/28 02:54:37;;;;;;;12.83;11.63;;;10.60;99.90;;;;;;5077332;28;20489;-60
2022/06/28 02:57:05;;;;;;;14.20;12.90;;;10.60;99.90;;;;;;5077414;28;20458;-61
2022/06/28 02:59:35;;;;;;;11.63;10.53;;;10.70;99.90;;;;;;5077348;28;20898;-60
2022/06/28 03:02:04;;;;;;;12.77;11.57;;;10.60;99.90;;;;;;5077437;28;20480;-60
2022/06/28 03:04:31;;;;;;;12.43;11.23;;;10.70;99.90;;;;;;5077399;28;20460;-60
2022/06/28 03:06:58;;;;;;;11.40;10.40;;;10.60;99.90;;;;;;5076881;28;20564;-60
2022/06/28 03:09:26;;;;;;;12.37;11.17;;;10.70;99.90;;;;;;5077290;28;20486;-59
2022/06/28 03:11:53;;;;;;;13.37;10.40;;;10.60;99.90;;;;;;5077306;28;20555;-60
2022/06/28 03:14:23;;;;;;;11.70;10.57;;;10.60;99.90;;;;;;5076982;28;20443;-60
2022/06/28 03:16:51;;;;;;;10.93;9.93;;;10.60;99.90;;;;;;5077217;28;20469;-59
2022/06/28 03:19:19;;;;;;;12.37;10.60;;;10.60;99.90;;;;;;5076533;28;20488;-59
2022/06/28 03:21:48;;;;;;;11.43;10.23;;;10.60;99.90;;;;;;5077177;28;20898;-60
2022/06/28 03:24:15;;;;;;;11.67;10.57;;;10.50;99.90;;;;;;5077383;28;20446;-60
2022/06/28 03:26:42;;;;;;;14.73;10.30;;;10.50;99.90;;;;;;5077001;28;20435;-60
2022/06/28 03:29:13;;;;;;;12.93;11.63;;;10.50;99.90;;;;;;5057104;28;20474;-60
2022/06/28 03:31:40;;;;;;;10.97;9.87;;;10.50;99.90;;;;;;5057242;28;20544;-59
2022/06/28 03:34:10;;;;;;;11.40;10.40;;;10.50;99.90;;;;;;5056639;28;20557;-59
2022/06/28 03:36:38;;;;;;;12.37;11.17;;;10.50;99.90;;;;;;5057059;28;20468;-59
2022/06/28 03:39:06;;;;;;;12.60;9.50;;;10.50;99.90;;;;;;5056874;28;20561;-59
2022/06/28 03:41:33;;;;;;;13.77;11.30;;;10.50;99.90;;;;;;5057124;28;20476;-59
2022/06/28 03:44:03;;;;;;;10.47;9.47;;;10.50;99.90;;;;;;5056363;28;20466;-60
2022/06/28 03:46:30;;;;;;;11.07;9.97;;;10.60;99.90;;;;;;5056485;28;20462;-60
2022/06/28 03:48:59;;;;;;;12.30;10.00;;;10.60;99.90;;;;;;5056861;28;20744;-59
2022/06/28 03:51:27;;;;;;;9.87;8.90;;;10.50;99.90;;;;;;5057141;28;20445;-58
2022/06/28 03:53:59;;;;;;;11.73;10.40;;;10.50;99.90;;;;;;5056397;28;20730;-60
2022/06/28 03:56:27;;;;;;;11.50;10.40;;;10.60;99.90;;;;;;5056609;28;20494;-59
2022/06/28 03:58:54;;;;;;;10.63;9.63;;;10.60;99.90;;;;;;5056650;28;20886;-60
2022/06/28 04:01:21;;;;;;;11.60;9.63;;;10.60;99.90;;;;;;5056763;28;20828;-60
2022/06/28 04:03:49;;;;;;;12.20;10.90;;;10.60;99.90;;;;;;5056774;28;20462;-59
2022/06/28 04:06:16;;;;;;;10.97;9.87;;;10.60;99.90;;;;;;5056566;28;20553;-59
2022/06/28 04:08:44;;;;;;;9.80;8.90;;;10.60;99.90;;;;;;5056288;28;20941;-59
2022/06/28 04:11:17;;;;;;;10.57;9.57;;;10.60;99.90;;;;;;5056813;28;20561;-59
2022/06/28 04:13:46;;;;;;;11.07;10.07;;;10.70;99.90;;;;;;5056939;28;20512;-59
2022/06/28 04:16:14;;;;;;;13.17;10.57;;;10.70;99.90;;;;;;5056397;28;20504;-59
2022/06/28 04:18:43;;;;;;;10.97;9.87;;;10.80;99.90;;;;;;5056540;28;20552;-59
2022/06/28 04:21:11;;;;;;;11.03;10.03;;;10.80;99.90;;;;;;5056091;28;20466;-59
2022/06/28 04:23:42;;;;;;;10.67;9.77;;;10.80;99.90;;;;;;5055761;28;20462;-59
2022/06/28 04:26:09;;;;;;;13.50;12.10;;;10.90;99.90;;;;;;5056623;28;20910;-59
2022/06/28 04:28:38;;;;;;;12.20;10.97;;;10.90;99.90;;;;;;5056433;28;20466;-60
2022/06/28 04:31:07;;;;;;;12.10;11.00;;;11.00;99.90;;;;;;5057279;28;20454;-60
2022/06/28 04:33:37;;;;;;;12.67;11.10;;;11.10;99.90;;;;;;5060152;28;20515;-59
2022/06/28 04:36:07;;;;;;;14.53;13.10;;;11.20;99.90;;;;;;5059461;28;20957;-59
2022/06/28 04:38:37;;;;;;;17.50;13.10;;;11.30;99.90;;;;;;5059893;28;20958;-60
2022/06/28 04:41:05;;;;;;;15.13;13.63;;;11.40;99.90;;;;;;5059698;28;20462;-60
2022/06/28 04:43:32;;;;;;;14.83;13.33;;;11.40;99.90;;;;;;5059523;28;20466;-60
2022/06/28 04:46:01;;;;;;;13.93;12.73;;;11.50;99.90;;;;;;5059642;28;20911;-60
2022/06/28 04:48:28;;;;;;;15.27;13.67;;;11.50;99.90;;;;;;5058368;28;20524;-60
2022/06/28 04:51:10;;;;;;;16.03;14.50;;;11.60;99.90;;;;;;5079715;28;20831;-60
2022/06/28 04:53:39;;;;;;;14.87;13.57;;;11.70;99.90;;;;;;5079943;28;20439;-59
2022/06/28 04:56:06;;;;;;;15.37;14.07;;;11.80;99.90;;;;;;5079416;28;20496;-60
2022/06/28 04:58:36;;;;;;;15.07;13.37;;;11.80;99.90;;;;;;5079614;28;20440;-59
2022/06/28 05:01:05;;;;;;;15.47;13.87;;;11.90;99.90;;;;;;5079321;28;20614;-60
2022/06/28 05:03:33;;;;;;;14.77;13.37;;;11.90;99.90;;;;;;5079791;28;20500;-58
2022/06/28 05:06:00;;;;;;;15.70;14.20;;;12.00;99.90;;;;;;5078359;28;20530;-60
2022/06/28 05:08:27;;;;;;;16.07;14.47;;;12.10;99.90;;;;;;5079700;28;20859;-59
2022/06/28 05:10:57;;;;;;;16.43;14.83;;;12.10;99.90;;;;;;5079524;28;20440;-59
2022/06/28 05:13:24;;;;;;;17.37;14.73;;;12.20;99.90;;;;;;5079316;28;20458;-59
2022/06/28 05:15:57;;;;;;;18.47;16.60;;;12.40;99.90;;;;;;5079601;28;20562;-59
2022/06/28 05:18:26;;;;;;;18.60;15.13;;;12.50;99.90;;;;;;5079226;28;20498;-60
2022/06/28 05:20:54;;;;;;;16.80;15.10;;;12.60;99.90;;;;;;5079054;28;20500;-59
2022/06/28 05:23:21;;;;;;;18.10;16.27;;;12.70;99.90;;;;;;5079298;28;20882;-59
2022/06/28 05:25:48;;;;;;;19.73;17.30;;;12.70;99.90;;;;;;5079503;28;20462;-59
2022/06/28 05:28:18;;;;;;;17.70;15.77;;;12.90;99.90;;;;;;5078950;28;20726;-59
2022/06/28 05:30:46;;;;;;;17.73;14.90;;;13.00;99.90;;;;;;5079091;28;20449;-60
2022/06/28 05:33:13;;;;;;;17.40;15.80;;;13.20;99.90;;;;;;5078745;28;20466;-59
2022/06/28 05:35:42;;;;;;;17.13;15.43;;;13.30;99.90;;;;;;5078163;28;20515;-59
2022/06/28 05:38:11;;;;;;;15.43;14.00;;;13.40;99.90;;;;;;5078161;28;20546;-60
2022/06/28 05:40:41;;;;;;;16.97;15.27;;;13.60;99.90;;;;;;5077697;28;20440;-59
2022/06/28 05:43:09;;;;;;;16.40;14.70;;;13.80;99.90;;;;;;5079087;28;20497;-61
2022/06/28 05:45:36;;;;;;;15.77;14.00;;;13.90;99.90;;;;;;5079003;28;20453;-61
2022/06/28 05:48:04;;;;;;;13.73;12.40;;;14.20;99.90;;;;;;5078781;28;20530;-62
2022/06/28 05:50:32;;;;;;;14.60;12.47;;;14.30;99.90;;;;;;5065888;28;20436;-61
2022/06/28 05:53:01;;;;;;;12.27;11.07;;;14.60;99.90;;;;;;5059223;28;20887;-62
2022/06/28 05:55:31;;;;;;;13.50;12.20;;;14.80;99.90;;;;;;5073082;28;20580;-62
2022/06/28 05:58:01;;;;;;;14.80;11.90;;;15.10;99.90;;;;;;5078522;28;20544;-62
2022/06/28 06:00:40;;;;;;;11.70;10.60;;;15.50;99.90;;;;;;5078440;28;20544;-62
2022/06/28 06:03:10;;;;;;;12.10;10.60;;;15.80;99.90;;;;;;5078630;28;20856;-62
2022/06/28 06:05:40;;;;;;;11.47;10.27;;;16.00;99.90;;;;;;5078316;28;20518;-62
2022/06/28 06:08:09;;;;;;;10.57;9.50;;;16.20;99.90;;;;;;5077942;28;20465;-63
2022/06/28 06:10:36;;;;;;;9.73;8.83;;;16.50;99.90;;;;;;5078032;28;20457;-63
2022/06/28 06:13:04;;;;;;;9.60;8.67;;;16.60;99.90;;;;;;5078305;28;20465;-62
2022/06/28 06:15:31;;;;;;;9.03;8.03;;;16.90;99.90;;;;;;5077650;28;20489;-63
2022/06/28 06:18:01;;;;;;;9.87;8.80;;;17.00;1.00;;;;;;5077802;28;20520;-62
2022/06/28 06:20:28;;;;;;;9.83;8.93;;;17.20;1.00;;;;;;5077632;28;20938;-63
2022/06/28 06:22:55;;;;;;;8.90;8.00;;;17.40;1.00;;;;;;5077904;28;20788;-63
2022/06/28 06:25:26;;;;;;;8.53;7.73;;;17.70;1.00;;;;;;5077848;28;20531;-63
2022/06/28 06:27:57;;;;;;;8.67;7.80;;;17.80;1.00;;;;;;5076860;28;20502;-63
2022/06/28 06:30:24;;;;;;;8.77;7.93;;;18.00;1.00;;;;;;5076936;28;20778;-63
2022/06/28 06:32:51;;;;;;;10.10;9.13;;;18.10;1.00;;;;;;5056401;28;20485;-63
2022/06/28 06:35:19;;;;;;;8.47;7.47;;;18.40;1.00;;;;;;5055590;28;20462;-63
2022/06/28 06:37:46;;;;;;;7.83;6.50;;;18.50;1.00;;;;;;5056788;28;20462;-62
2022/06/28 06:40:16;;;;;;;8.10;7.37;;;18.60;1.00;;;;;;5045166;28;20852;-63
2022/06/28 06:42:48;;;;;;;9.07;6.97;;;18.80;1.00;;;;;;5036821;28;20498;-63
2022/06/28 06:45:15;;;;;;;8.60;6.47;;;19.20;1.00;;;;;;5037542;28;20915;-63
2022/06/28 06:47:42;;;;;;;7.13;6.33;;;19.50;1.00;;;;;;5057462;28;20462;-63
2022/06/28 06:50:13;;;;;;;16.47;8.00;;;19.40;1.00;;;;;;5057142;28;20436;-62
2022/06/28 06:52:40;;;;;;;12.00;5.90;;;19.70;1.00;;;;;;5057204;28;20462;-63
2022/06/28 06:55:12;;;;;;;6.47;4.70;;;20.00;1.00;;;;;;5056459;28;20560;-63
2022/06/28 06:57:45;;;;;;;6.00;4.87;;;20.20;1.00;;;;;;5057446;28;20432;-64
2022/06/28 07:00:13;;;;;;;7.00;5.30;;;20.30;99.90;;;;;;5057103;28;20481;-63
2022/06/28 07:02:41;;;;;;;6.70;5.03;;;20.40;99.90;;;;;;5057057;28;20527;-64
2022/06/28 07:05:11;;;;;;;5.67;4.83;;;20.60;99.90;;;;;;5057289;28;20454;-63
2022/06/28 07:07:39;;;;;;;4.87;3.50;;;20.80;99.90;;;;;;5057142;28;20548;-63
2022/06/28 07:10:07;;;;;;;4.80;4.07;;;20.70;99.90;;;;;;5056588;28;20510;-63
2022/06/28 07:12:34;;;;;;;6.83;4.43;;;20.80;99.90;;;;;;5055873;28;20569;-63
2022/06/28 07:15:05;;;;;;;5.20;3.60;;;20.80;99.90;;;;;;5056396;28;20465;-64
2022/06/28 07:17:33;;;;;;;5.63;3.60;;;21.10;99.90;;;;;;5057040;28;20517;-65
2022/06/28 07:20:00;;;;;;;4.60;4.07;;;21.30;99.90;;;;;;5056502;28;20486;-64
2022/06/28 07:22:27;;;;;;;5.03;4.53;;;21.60;99.90;;;;;;5056345;28;20971;-64
2022/06/28 07:24:56;;;;;;;6.80;5.30;;;22.10;99.90;;;;;;5057282;28;20462;-63
2022/06/28 07:27:23;;;;;;;5.60;4.40;;;22.30;99.90;;;;;;5057598;28;20458;-64
2022/06/28 07:29:57;;;;;;;6.50;4.33;;;22.50;99.90;;;;;;5057093;28;20861;-64
2022/06/28 07:32:29;;;;;;;7.10;4.60;;;22.50;99.90;;;;;;5056597;28;20437;-63
2022/06/28 07:34:57;;;;;;;6.47;4.30;;;22.60;99.90;;;;;;5057017;28;20934;-63
2022/06/28 07:37:24;;;;;;;3.40;3.10;;;22.60;99.90;;;;;;5057273;28;20593;-63
2022/06/28 07:39:52;;;;;;;4.13;3.07;;;21.90;99.90;;;;;;5057519;28;20466;-64
2022/06/28 07:42:28;;;;;;;3.50;2.33;;;22.30;99.90;;;;;;5057784;28;20498;-63
2022/06/28 07:44:59;;;;;;;3.90;2.53;;;22.50;99.90;;;;;;5056559;28;20467;-63
2022/06/28 07:47:31;;;;;;;5.57;3.00;;;22.50;99.90;;;;;;5056522;28;20466;-62
2022/06/28 07:52:48;;;;;;;2.90;2.50;;;23.50;99.90;;;;;;5056198;28;20434;-62
2022/06/28 07:55:22;;;;;;;4.87;2.63;;;23.70;99.90;;;;;;5056799;28;20436;-62
2022/06/28 07:57:49;;;;;;;28.93;6.47;;;23.30;99.90;;;;;;5051306;28;20555;-62
2022/06/28 08:00:19;;;;;;;225.07;32.97;;;23.60;99.90;;;;;;5036613;28;20551;-62
2022/06/28 08:02:50;;;;;;;5.30;3.03;;;23.70;99.90;;;;;;5036868;28;20910;-62
2022/06/28 08:05:18;;;;;;;4.17;2.67;;;23.60;99.90;;;;;;5036831;28;20837;-62
2022/06/28 08:07:47;;;;;;;7.83;2.63;;;23.80;99.90;;;;;;5047355;28;20456;-62
2022/06/28 08:10:25;;;;;;;3.13;2.40;;;24.30;99.90;;;;;;5080141;28;20461;-62
2022/06/28 08:12:52;;;;;;;3.10;2.73;;;24.50;99.90;;;;;;5080569;28;20465;-62
2022/06/28 08:15:19;;;;;;;3.60;2.17;;;24.30;99.90;;;;;;5080132;28;20530;-62
2022/06/28 08:17:48;;;;;;;3.33;2.27;;;24.10;99.90;;;;;;5080039;28;20495;-62
2022/06/28 08:20:18;;;;;;;3.13;1.83;;;23.70;99.90;;;;;;5079867;28;20557;-62
2022/06/28 08:22:46;;;;;;;3.93;2.20;;;24.20;99.90;;;;;;5080239;28;20890;-62
2022/06/28 08:25:16;;;;;;;4.23;2.30;;;24.10;99.90;;;;;;5080671;28;20544;-62
2022/06/28 08:27:44;;;;;;;2.30;2.10;;;24.40;99.90;;;;;;5080279;28;20485;-62
2022/06/28 08:30:12;;;;;;;2.63;2.40;;;24.00;99.90;;;;;;5080062;28;20500;-62
2022/06/28 08:32:40;;;;;;;3.70;2.83;;;24.70;99.90;;;;;;5080054;28;20496;-62
2022/06/28 08:35:10;;;;;;;3.07;2.37;;;24.70;99.90;;;;;;5079495;28;20489;-62
2022/06/28 08:37:38;;;;;;;3.60;3.00;;;25.00;99.90;;;;;;5079939;28;20996;-62
2022/06/28 08:40:10;;;;;;;3.93;3.30;;;24.70;99.90;;;;;;5079271;28;20461;-62
2022/06/28 08:42:40;;;;;;;4.10;2.90;;;24.90;99.90;;;;;;5079982;28;20754;-62
2022/06/28 08:45:13;;;;;;;5.03;2.63;;;25.20;99.90;;;;;;5079751;28;20472;-62
2022/06/28 08:47:43;;;;;;;4.00;2.63;;;24.70;99.90;;;;;;5079997;28;20449;-62
2022/06/28 08:50:20;;;;;;;9.67;2.80;;;24.40;99.90;;;;;;5068781;28;20883;-62
2022/06/28 08:52:49;;;;;;;3.83;2.10;;;24.70;99.90;;;;;;5059414;28;20553;-63
2022/06/28 08:55:17;;;;;;;3.70;2.40;;;25.50;99.90;;;;;;5059322;28;20480;-63
2022/06/28 08:57:44;;;;;;;2.00;1.70;;;25.50;99.90;;;;;;5059592;28;20580;-62
2022/06/28 09:00:13;;;;;;;2.10;1.83;;;25.60;99.90;;;;;;5059486;28;20483;-62
2022/06/28 09:02:41;;;;;;;4.40;2.70;;;26.00;99.90;;;;;;5059782;28;20855;-62
2022/06/28 09:05:09;;;;;;;9.60;3.40;;;26.20;99.90;;;;;;5059342;28;20466;-63
2022/06/28 09:07:37;;;;;;;1.70;1.43;;;26.00;99.90;;;;;;5059734;28;20553;-62
2022/06/28 09:10:05;;;;;;;4.63;2.10;;;26.20;99.90;;;;;;5059244;28;20519;-63
2022/06/28 09:12:34;;;;;;;2.87;1.80;;;26.30;99.90;;;;;;5059234;28;20910;-62
2022/06/28 09:15:04;;;;;;;3.33;2.73;;;26.60;99.90;;;;;;5059391;28;20443;-62
2022/06/28 09:17:36;;;;;;;2.93;2.27;;;26.30;99.90;;;;;;5059043;28;20475;-63
2022/06/28 09:20:10;;;;;;;3.63;2.60;;;26.10;99.90;;;;;;5058858;28;20576;-62
2022/06/28 09:22:41;;;;;;;3.30;2.77;;;26.50;99.90;;;;;;5058327;28;20488;-63
2022/06/28 09:25:12;;;;;;;2.47;2.23;;;26.40;99.90;;;;;;5058306;28;20565;-63
2022/06/28 09:27:42;;;;;;;5.33;2.70;;;26.70;99.90;;;;;;5061281;28;20557;-63
2022/06/28 09:30:12;;;;;;;5.20;2.33;;;26.70;99.90;;;;;;5066353;28;20985;-63
2022/06/28 09:32:40;;;;;;;2.57;2.30;;;27.00;99.90;;;;;;5067775;28;20552;-63
2022/06/28 09:35:10;;;;;;;2.37;2.17;;;27.00;99.90;;;;;;5068085;28;20887;-63
2022/06/28 09:37:42;;;;;;;3.33;2.30;;;27.10;99.90;;;;;;5064978;28;20901;-62
2022/06/28 09:40:17;;;;;;;5.23;2.23;;;27.30;99.90;;;;;;5066247;28;20454;-62
2022/06/28 09:42:48;;;;;;;2.93;2.73;;;27.70;99.90;;;;;;5066937;28;20464;-62
2022/06/28 09:45:18;;;;;;;3.87;2.67;;;27.70;99.90;;;;;;5062729;28;20757;-62
2022/06/28 09:47:49;;;;;;;5.03;2.63;;;27.80;99.90;;;;;;5067730;28;20450;-63
2022/06/28 09:50:20;;;;;;;4.40;2.53;;;28.10;99.90;;;;;;5062761;28;20888;-62
2022/06/28 09:52:50;;;;;;;3.23;2.77;;;27.90;99.90;;;;;;5068816;28;20556;-63
2022/06/28 09:55:19;;;;;;;3.00;2.37;;;27.90;99.90;;;;;;5064213;28;20454;-63
2022/06/28 09:57:48;;;;;;;3.00;2.70;;;27.20;99.90;;;;;;5066769;28;20573;-63
2022/06/28 10:00:21;;;;;;;4.37;3.00;;;27.40;99.90;;;;;;5063380;28;20884;-63
2022/06/28 10:02:49;;;;;;;3.57;2.20;;;26.70;99.90;;;;;;5066217;28;20495;-63
2022/06/28 10:05:17;;;;;;;3.00;2.40;;;27.90;99.90;;;;;;5065823;28;20524;-63
2022/06/28 10:07:45;;;;;;;2.90;2.30;;;28.50;99.90;;;;;;5066375;28;20510;-63
2022/06/28 10:10:14;;;;;;;3.73;2.40;;;29.10;99.90;;;;;;5065291;28;20918;-62
2022/06/28 10:15:41;;;;;;;3.20;2.90;;;28.90;99.90;;;;;;5013738;28;20420;-63
2022/06/28 10:18:15;;;;;;;4.33;2.97;;;29.10;99.90;;;;;;5053471;28;20486;-62
2022/06/28 10:20:46;;;;;;;3.47;2.10;;;29.00;99.90;;;;;;5058701;28;20472;-63
2022/06/28 10:23:25;;;;;;;4.63;2.83;;;29.10;99.90;;;;;;5062784;28;20465;-62
2022/06/28 10:26:11;;;;;;;3.70;2.10;;;27.70;99.90;;;;;;5067368;28;20548;-63
2022/06/28 10:28:44;;;;;;;3.70;2.27;;;27.20;99.90;;;;;;5062481;28;20454;-63
2022/06/28 10:31:37;;;;;;;3.73;2.43;;;27.30;99.90;;;;;;5065088;28;20454;-63
2022/06/28 10:34:08;;;;;;;3.50;2.57;;;26.80;99.90;;;;;;5061038;28;20469;-62
2022/06/28 10:36:49;;;;;;;3.30;2.57;;;26.10;99.90;;;;;;5066579;28;20444;-62
2022/06/28 10:39:25;;;;;;;3.33;2.37;;;26.80;99.90;;;;;;5059076;28;20925;-62
2022/06/28 10:42:10;;;;;;;4.10;3.00;;;27.10;99.90;;;;;;5062622;28;20472;-63
2022/06/28 10:44:49;;;;;;;3.70;2.57;;;26.60;99.90;;;;;;5058819;28;20489;-62
2022/06/28 10:47:18;;;;;;;2.60;2.40;;;26.50;99.90;;;;;;5066908;28;20457;-62
2022/06/28 10:50:17;;;;;;;3.07;2.33;;;25.70;99.90;;;;;;5056972;28;20835;-62
2022/06/28 10:53:01;;;;;;;3.63;2.20;;;25.20;99.90;;;;;;5057545;28;20565;-62
2022/06/28 10:55:31;;;;;;;3.30;2.93;;;24.90;99.90;;;;;;5057792;28;20873;-62
2022/06/28 10:58:12;;;;;;;2.63;2.17;;;24.40;99.90;;;;;;5047036;28;20489;-62
2022/06/28 11:00:57;;;;;;;3.00;2.50;;;24.70;99.90;;;;;;5057181;28;20939;-62
2022/06/28 11:03:24;;;;;;;2.60;2.20;;;25.80;99.90;;;;;;5055560;28;20557;-62
2022/06/28 11:05:54;;;;;;;4.00;2.67;;;27.20;99.90;;;;;;5057333;28;20465;-62
2022/06/28 11:08:54;;;;;;;5.40;2.30;;;27.60;99.90;;;;;;5058291;28;20813;-62
2022/06/28 11:11:22;;;;;;;3.33;2.20;;;27.00;99.90;;;;;;5042520;28;20484;-63
2022/06/28 11:14:27;;;;;;;4.00;2.80;;;27.60;99.90;;;;;;5056805;28;20845;-63
2022/06/28 11:16:55;;;;;;;2.60;2.40;;;27.70;99.90;;;;;;5057200;28;20475;-62
2022/06/28 11:19:23;;;;;;;4.47;2.67;;;28.10;99.90;;;;;;5055957;28;20489;-62
2022/06/28 11:21:55;;;;;;;4.57;2.60;;;27.70;99.90;;;;;;5056544;28;20931;-62
2022/06/28 11:24:26;;;;;;;3.50;2.50;;;28.50;99.90;;;;;;5055309;28;20433;-62
2022/06/28 11:29:47;;;;;;;2.23;2.03;;;28.30;99.90;;;;;;5056472;28;20437;-62
2022/06/28 11:32:22;;;;;;;3.60;2.43;;;28.40;99.90;;;;;;5057382;28;20465;-62
2022/06/28 11:35:00;;;;;;;4.00;2.90;;;28.10;99.90;;;;;;5056354;28;20458;-63
2022/06/28 11:37:32;;;;;;;3.33;2.67;;;28.00;99.90;;;;;;5057037;28;20495;-63
2022/06/28 11:40:01;;;;;;;2.90;2.20;;;29.50;99.90;;;;;;5057565;28;20461;-63
2022/06/28 11:42:29;;;;;;;3.60;2.43;;;29.50;99.90;;;;;;5060424;28;20462;-63
2022/06/28 11:44:58;;;;;;;3.00;2.37;;;28.80;99.90;;;;;;5061253;28;20547;-63
2022/06/28 11:47:26;;;;;;;2.73;2.17;;;28.80;99.90;;;;;;5061245;28;20461;-62
2022/06/28 11:50:10;;;;;;;3.07;2.43;;;29.50;99.90;;;;;;5061379;28;20436;-62
2022/06/28 11:52:46;;;;;;;3.20;2.70;;;30.50;99.90;;;;;;5061030;28;20556;-62
2022/06/28 11:55:16;;;;;;;7.13;3.13;;;31.10;99.90;;;;;;5061015;28;20463;-63
2022/06/28 11:57:52;;;;;;;3.20;2.70;;;30.90;99.90;;;;;;5058099;28;20485;-63
2022/06/28 12:00:26;;;;;;;3.60;2.70;;;30.80;99.90;;;;;;5060692;28;20461;-63
2022/06/28 12:02:55;;;;;;;3.03;2.40;;;30.90;99.90;;;;;;5059831;28;21006;-63
2022/06/28 12:05:36;;;;;;;3.50;2.30;;;31.00;99.90;;;;;;5060535;28;20440;-62
2022/06/28 12:08:04;;;;;;;2.97;2.40;;;31.00;99.90;;;;;;5059456;28;20468;-62
2022/06/28 12:13:12;;;;;;;9.80;2.80;;;29.20;99.90;;;;;;5178388;22;20500;-62
2022/06/28 12:15:41;;;;;;;2.50;2.30;;;29.00;99.90;;;;;;5060892;28;20897;-62
2022/06/28 12:18:10;;;;;;;5.13;2.90;;;29.50;99.90;;;;;;5060740;28;20580;-62
2022/06/28 12:20:57;;;;;;;4.07;2.67;;;30.30;99.90;;;;;;5060577;28;20885;-63
2022/06/28 12:23:26;;;;;;;3.77;2.40;;;30.90;99.90;;;;;;5060567;28;20465;-62
2022/06/28 12:26:01;;;;;;;5.10;2.60;;;31.00;99.90;;;;;;5060726;28;20457;-62
2022/06/28 12:28:28;;;;;;;4.33;2.90;;;30.70;99.90;;;;;;5060633;28;20514;-62
2022/06/28 12:30:59;;;;;;;4.30;2.53;;;30.40;99.90;;;;;;5058090;28;20487;-62
2022/06/28 12:33:27;;;;;;;2.60;2.40;;;30.30;99.90;;;;;;5061426;28;20470;-62
2022/06/28 12:35:54;;;;;;;4.87;2.70;;;29.80;99.90;;;;;;5058635;28;20564;-62
2022/06/28 12:38:23;;;;;;;2.97;2.30;;;29.60;99.90;;;;;;5058812;28;20490;-63
2022/06/28 12:40:50;;;;;;;4.00;2.77;;;29.90;99.90;;;;;;5059244;28;20558;-62
2022/06/28 12:43:22;;;;;;;3.77;2.10;;;30.30;99.90;;;;;;5059010;28;20466;-63
2022/06/28 12:45:49;;;;;;;3.20;2.57;;;30.80;99.90;;;;;;5059913;28;20486;-63
2022/06/28 12:48:17;;;;;;;3.10;2.50;;;30.80;99.90;;;;;;5059787;28;20847;-61
2022/06/28 12:50:49;;;;;;;2.50;2.30;;;30.30;99.90;;;;;;5058906;28;20464;-62
2022/06/28 12:53:18;;;;;;;4.27;2.67;;;29.10;99.90;;;;;;5058005;28;20882;-61
2022/06/28 12:55:45;;;;;;;4.00;2.63;;;28.10;99.90;;;;;;5058972;28;20466;-61
2022/06/28 12:58:15;;;;;;;4.20;2.53;;;27.90;99.90;;;;;;5058892;28;20914;-62
2022/06/28 13:00:45;;;;;;;3.33;2.33;;;27.90;99.90;;;;;;5058554;28;20477;-62
2022/06/28 13:03:13;;;;;;;2.70;2.50;;;28.50;99.90;;;;;;5058834;28;20829;-63
2022/06/28 13:05:43;;;;;;;4.80;2.53;;;29.40;99.90;;;;;;5058751;28;20481;-62
2022/06/28 13:08:10;;;;;;;5.10;2.77;;;29.80;99.90;;;;;;5059988;28;20460;-62
2022/06/28 13:10:38;;;;;;;5.53;3.00;;;29.90;99.90;;;;;;5059598;28;20480;-62
2022/06/28 13:13:06;;;;;;;2.40;2.20;;;30.30;99.90;;;;;;5059321;28;20881;-62